Time;durP1;ratioP1;P1;durP2;ratioP2;P2;SDS_P1;SDS_P2;PMS_P1;PMS_P2;Temp;Humidity;BMP_temperature;BMP_pressure;BME280_temperature;BME280_humidity;BME280_pressure;Samples;Min_cycle;Max_cycle;Signal;HPM_P1;HPM_P2
2021/08/06 00:00:39;;;;;;;;;;;15.80;99.90;;;;;;5076357;28;19920;-87
2021/08/06 00:03:07;;;;;;;;;;;15.80;99.90;;;;;;5076549;28;19920;-87
2021/08/06 00:05:33;;;;;;;;;;;15.80;99.90;;;;;;5076446;28;19926;-87
2021/08/06 00:08:00;;;;;;;;;;;15.80;99.90;;;;;;5076236;28;19920;-87
2021/08/06 00:10:27;;;;;;;;;;;15.80;99.90;;;;;;5076158;28;19939;-82
2021/08/06 00:12:55;;;;;;;;;;;15.80;99.90;;;;;;5076159;28;19920;-85
2021/08/06 00:15:22;;;;;;;;;;;15.80;99.90;;;;;;5076328;28;19935;-85
2021/08/06 00:17:49;;;;;;;;;;;15.80;99.90;;;;;;5076347;28;19921;-85
2021/08/06 00:20:17;;;;;;;;;;;15.70;99.90;;;;;;5076055;28;19920;-85
2021/08/06 00:22:47;;;;;;;;;;;15.70;99.90;;;;;;5075284;28;20186;-85
2021/08/06 00:25:15;;;;;;;;;;;15.70;99.90;;;;;;5075503;28;19924;-85
2021/08/06 00:27:44;;;;;;;;;;;15.70;99.90;;;;;;5075464;28;20368;-85
2021/08/06 00:30:12;;;;;;;;;;;15.70;99.90;;;;;;5075711;28;19935;-85
2021/08/06 00:32:40;;;;;;;;;;;15.70;99.90;;;;;;5075681;28;19942;-85
2021/08/06 00:35:12;;;;;;;;;;;15.70;99.90;;;;;;5075891;28;19957;-85
2021/08/06 00:37:41;;;;;;;;;;;15.70;99.90;;;;;;5075576;28;19934;-85
2021/08/06 00:40:09;;;;;;;;;;;15.70;99.90;;;;;;5075861;28;19947;-85
2021/08/06 00:42:38;;;;;;;;;;;15.60;99.90;;;;;;5075501;28;20262;-85
2021/08/06 00:45:07;;;;;;;;;;;15.70;99.90;;;;;;5075877;28;19935;-85
2021/08/06 00:47:37;;;;;;;;;;;15.70;99.90;;;;;;5075740;28;19925;-83
2021/08/06 00:50:06;;;;;;;;;;;15.70;99.90;;;;;;5075586;28;19935;-85
2021/08/06 00:52:34;;;;;;;;;;;15.70;99.90;;;;;;5075681;28;19929;-84
2021/08/06 00:55:02;;;;;;;;;;;15.70;99.90;;;;;;5075832;28;19924;-84
2021/08/06 00:57:30;;;;;;;;;;;15.70;99.90;;;;;;5075492;28;19924;-82
2021/08/06 00:59:58;;;;;;;;;;;15.70;99.90;;;;;;5075338;28;19925;-83
2021/08/06 01:02:27;;;;;;;;;;;15.70;99.90;;;;;;5075392;28;20350;-83
2021/08/06 01:04:59;;;;;;;;;;;15.70;99.90;;;;;;5075301;28;19925;-84
2021/08/06 01:07:28;;;;;;;;;;;15.60;99.90;;;;;;5074513;28;19925;-83
2021/08/06 01:09:55;;;;;;;;;;;15.60;99.90;;;;;;5075499;28;19934;-83
2021/08/06 01:12:23;;;;;;;;;;;15.60;99.90;;;;;;5075218;28;19932;-83
2021/08/06 01:14:50;;;;;;;;;;;15.60;99.90;;;;;;5075170;28;19924;-83
2021/08/06 01:17:17;;;;;;;;;;;15.60;99.90;;;;;;5074794;28;19935;-83
2021/08/06 01:19:49;;;;;;;;;;;15.60;99.90;;;;;;5074519;28;20364;-83
2021/08/06 01:22:21;;;;;;;;;;;15.60;99.90;;;;;;5075101;28;19985;-83
2021/08/06 01:24:49;;;;;;;;;;;15.60;99.90;;;;;;5075090;28;19925;-83
2021/08/06 01:27:17;;;;;;;;;;;15.60;99.90;;;;;;5074999;28;20362;-83
2021/08/06 01:29:44;;;;;;;;;;;15.60;99.90;;;;;;5075206;28;19935;-83
2021/08/06 01:32:11;;;;;;;;;;;15.60;99.90;;;;;;5075191;28;19935;-84
2021/08/06 01:34:38;;;;;;;;;;;15.50;99.90;;;;;;5075027;28;19925;-83
2021/08/06 01:37:05;;;;;;;;;;;15.60;99.90;;;;;;5075178;28;20258;-83
2021/08/06 01:39:31;;;;;;;;;;;15.50;99.90;;;;;;5075288;28;19934;-83
2021/08/06 01:42:00;;;;;;;;;;;15.50;99.90;;;;;;5074859;28;20270;-83
2021/08/06 01:44:31;;;;;;;;;;;15.60;99.90;;;;;;5074835;28;19931;-82
2021/08/06 01:46:58;;;;;;;;;;;15.50;99.90;;;;;;5074921;28;19925;-83
2021/08/06 01:49:26;;;;;;;;;;;15.50;99.90;;;;;;5074905;28;19930;-83
2021/08/06 01:51:56;;;;;;;;;;;15.50;99.90;;;;;;5074847;28;20312;-82
2021/08/06 01:54:22;;;;;;;;;;;15.50;99.90;;;;;;5074899;28;19931;-83
2021/08/06 01:56:49;;;;;;;;;;;15.50;99.90;;;;;;5074761;28;19930;-83
2021/08/06 01:59:16;;;;;;;;;;;15.50;99.90;;;;;;5074749;28;19924;-83
2021/08/06 02:01:44;;;;;;;;;;;15.50;99.90;;;;;;5074859;28;19951;-83
2021/08/06 02:04:11;;;;;;;;;;;15.50;99.90;;;;;;5074722;28;19924;-83
2021/08/06 02:06:38;;;;;;;;;;;15.50;99.90;;;;;;5074709;28;19924;-83
2021/08/06 02:09:05;;;;;;;;;;;15.50;99.90;;;;;;5074786;28;20348;-83
2021/08/06 02:11:32;;;;;;;;;;;15.50;99.90;;;;;;5074698;28;19935;-82
2021/08/06 02:13:58;;;;;;;;;;;15.50;99.90;;;;;;5074564;28;19924;-83
2021/08/06 02:16:25;;;;;;;;;;;15.50;99.90;;;;;;5074753;28;19924;-83
2021/08/06 02:18:53;;;;;;;;;;;15.50;99.90;;;;;;5076776;28;19929;-83
2021/08/06 02:21:21;;;;;;;;;;;15.40;99.90;;;;;;5078406;28;19946;-83
2021/08/06 02:23:49;;;;;;;;;;;15.40;99.90;;;;;;5078126;28;20349;-83
2021/08/06 02:26:16;;;;;;;;;;;15.40;99.90;;;;;;5078133;28;19924;-83
2021/08/06 02:28:44;;;;;;;;;;;15.40;99.90;;;;;;5078303;28;19924;-82
2021/08/06 02:31:10;;;;;;;;;;;15.40;99.90;;;;;;5078555;28;19924;-82
2021/08/06 02:33:37;;;;;;;;;;;15.40;99.90;;;;;;5078150;28;19924;-83
2021/08/06 02:36:06;;;;;;;;;;;15.40;99.90;;;;;;5077967;28;19935;-83
2021/08/06 02:38:34;;;;;;;;;;;15.40;99.90;;;;;;5078080;28;19935;-83
2021/08/06 02:41:01;;;;;;;;;;;15.40;99.90;;;;;;5077900;28;19955;-83
2021/08/06 02:43:28;;;;;;;;;;;15.40;99.90;;;;;;5077905;28;20338;-83
2021/08/06 02:45:54;;;;;;;;;;;15.40;99.90;;;;;;5077932;28;19924;-83
2021/08/06 02:48:21;;;;;;;;;;;15.40;99.90;;;;;;5077677;28;19935;-83
2021/08/06 02:50:48;;;;;;;;;;;15.40;99.90;;;;;;5077816;28;19925;-83
2021/08/06 02:53:16;;;;;;;;;;;15.40;99.90;;;;;;5077676;28;20342;-82
2021/08/06 02:55:43;;;;;;;;;;;15.40;99.90;;;;;;5077658;28;19924;-82
2021/08/06 02:58:10;;;;;;;;;;;15.40;99.90;;;;;;5077603;28;20340;-81
2021/08/06 03:00:37;;;;;;;;;;;15.40;99.90;;;;;;5077636;28;19924;-81
2021/08/06 03:03:03;;;;;;;;;;;15.40;99.90;;;;;;5077860;28;19928;-82
2021/08/06 03:05:30;;;;;;;;;;;15.40;99.90;;;;;;5077664;28;19924;-81
2021/08/06 03:07:57;;;;;;;;;;;15.40;99.90;;;;;;5077151;28;19938;-81
2021/08/06 03:10:25;;;;;;;;;;;15.40;99.90;;;;;;5077767;28;19933;-81
2021/08/06 03:12:52;;;;;;;;;;;15.40;99.90;;;;;;5077294;28;19929;-81
2021/08/06 03:15:19;;;;;;;;;;;15.40;99.90;;;;;;5077345;28;19924;-81
2021/08/06 03:17:46;;;;;;;;;;;15.40;99.90;;;;;;5077219;28;20361;-81
2021/08/06 03:20:14;;;;;;;;;;;15.40;99.90;;;;;;5077265;28;19943;-80
2021/08/06 03:22:41;;;;;;;;;;;15.40;99.90;;;;;;5077006;28;19925;-81
2021/08/06 03:25:08;;;;;;;;;;;15.40;99.90;;;;;;5077402;28;19924;-81
2021/08/06 03:27:36;;;;;;;;;;;15.40;99.90;;;;;;5077340;28;19934;-81
2021/08/06 03:30:03;;;;;;;;;;;15.40;99.90;;;;;;5076173;28;19924;-81
2021/08/06 03:32:30;;;;;;;;;;;15.40;99.90;;;;;;5076974;28;19934;-81
2021/08/06 03:34:57;;;;;;;;;;;15.40;99.90;;;;;;5077041;28;19930;-81
2021/08/06 03:37:23;;;;;;;;;;;15.40;99.90;;;;;;5076950;28;19929;-81
2021/08/06 03:39:50;;;;;;;;;;;15.40;99.90;;;;;;5077187;28;19935;-81
2021/08/06 03:42:17;;;;;;;;;;;15.40;99.90;;;;;;5076792;28;19924;-81
2021/08/06 03:44:45;;;;;;;;;;;15.40;99.90;;;;;;5076902;28;19939;-81
2021/08/06 03:47:12;;;;;;;;;;;15.40;99.90;;;;;;5076658;28;20355;-81
2021/08/06 03:49:39;;;;;;;;;;;15.40;99.90;;;;;;5076851;28;19925;-81
2021/08/06 03:52:06;;;;;;;;;;;15.40;99.90;;;;;;5076598;28;19924;-81
2021/08/06 03:54:33;;;;;;;;;;;15.40;99.90;;;;;;5076782;28;20049;-81
2021/08/06 03:57:00;;;;;;;;;;;15.40;99.90;;;;;;5076517;28;19925;-82
2021/08/06 03:59:26;;;;;;;;;;;15.40;99.90;;;;;;5076785;28;19924;-81
2021/08/06 04:01:55;;;;;;;;;;;15.40;99.90;;;;;;5076716;28;19946;-81
2021/08/06 04:04:22;;;;;;;;;;;15.40;99.90;;;;;;5076377;28;19936;-81
2021/08/06 04:06:48;;;;;;;;;;;15.40;99.90;;;;;;5076221;28;19972;-81
2021/08/06 04:09:16;;;;;;;;;;;15.40;99.90;;;;;;5076586;28;19935;-81
2021/08/06 04:11:42;;;;;;;;;;;15.30;99.90;;;;;;5076170;28;19924;-81
2021/08/06 04:14:09;;;;;;;;;;;15.40;99.90;;;;;;5076317;28;19935;-81
2021/08/06 04:16:36;;;;;;;;;;;15.40;99.90;;;;;;5076166;28;19947;-81
2021/08/06 04:19:04;;;;;;;;;;;15.40;99.90;;;;;;5076007;28;19925;-81
2021/08/06 04:21:31;;;;;;;;;;;15.40;99.90;;;;;;5076014;28;19925;-81
2021/08/06 04:23:58;;;;;;;;;;;15.30;99.90;;;;;;5076040;28;20277;-81
2021/08/06 04:26:25;;;;;;;;;;;15.40;99.90;;;;;;5076059;28;19928;-81
2021/08/06 04:28:52;;;;;;;;;;;15.40;99.90;;;;;;5075911;28;19928;-82
2021/08/06 04:31:18;;;;;;;;;;;15.40;99.90;;;;;;5076126;28;19924;-81
2021/08/06 04:33:45;;;;;;;;;;;15.30;99.90;;;;;;5075721;28;20346;-81
2021/08/06 04:36:13;;;;;;;;;;;15.30;99.90;;;;;;5075987;28;19925;-81
2021/08/06 04:38:42;;;;;;;;;;;15.30;99.90;;;;;;5075922;28;20253;-81
2021/08/06 04:41:09;;;;;;;;;;;15.30;99.90;;;;;;5075515;28;20345;-82
2021/08/06 04:43:36;;;;;;;;;;;15.30;99.90;;;;;;5075696;28;20338;-81
2021/08/06 04:46:02;;;;;;;;;;;15.30;99.90;;;;;;5075564;28;19931;-82
2021/08/06 04:48:29;;;;;;;;;;;15.30;99.90;;;;;;5075675;28;19935;-81
2021/08/06 04:50:56;;;;;;;;;;;15.30;99.90;;;;;;5075463;28;20250;-82
2021/08/06 04:53:24;;;;;;;;;;;15.30;99.90;;;;;;5075678;28;19924;-81
2021/08/06 04:55:51;;;;;;;;;;;15.30;99.90;;;;;;5075601;28;19924;-81
2021/08/06 04:58:18;;;;;;;;;;;15.40;99.90;;;;;;5075509;28;20346;-82
2021/08/06 05:00:45;;;;;;;;;;;15.40;99.90;;;;;;5075268;28;19935;-82
2021/08/06 05:03:12;;;;;;;;;;;15.40;99.90;;;;;;5075308;28;19935;-82
2021/08/06 05:05:38;;;;;;;;;;;15.40;99.90;;;;;;5075334;28;20231;-82
2021/08/06 05:08:05;;;;;;;;;;;15.40;99.90;;;;;;5075013;28;19925;-81
2021/08/06 05:10:34;;;;;;;;;;;15.40;99.90;;;;;;5075277;28;19934;-82
2021/08/06 05:13:00;;;;;;;;;;;15.40;99.90;;;;;;5075447;28;19925;-81
2021/08/06 05:15:27;;;;;;;;;;;15.40;99.90;;;;;;5075289;28;19924;-82
2021/08/06 05:17:55;;;;;;;;;;;15.40;99.90;;;;;;5075130;28;19928;-84
2021/08/06 05:20:24;;;;;;;;;;;15.40;99.90;;;;;;5075566;28;20019;-84
2021/08/06 05:22:50;;;;;;;;;;;15.40;99.90;;;;;;5075254;28;19934;-81
2021/08/06 05:25:17;;;;;;;;;;;15.50;99.90;;;;;;5075048;28;20006;-81
2021/08/06 05:27:47;;;;;;;;;;;15.50;99.90;;;;;;5075148;28;19929;-81
2021/08/06 05:30:14;;;;;;;;;;;15.50;99.90;;;;;;5074997;28;19925;-84
2021/08/06 05:32:41;;;;;;;;;;;15.50;99.90;;;;;;5075475;28;19928;-84
2021/08/06 05:35:09;;;;;;;;;;;15.60;99.90;;;;;;5074932;28;19924;-84
2021/08/06 05:37:37;;;;;;;;;;;15.60;99.90;;;;;;5075214;28;19924;-84
2021/08/06 05:40:06;;;;;;;;;;;15.60;99.90;;;;;;5074882;28;19928;-84
2021/08/06 05:42:34;;;;;;;;;;;15.60;99.90;;;;;;5074975;28;19924;-83
2021/08/06 05:45:04;;;;;;;;;;;15.60;99.90;;;;;;5074763;28;19935;-84
2021/08/06 05:47:41;;;;;;;;;;;15.60;99.90;;;;;;5074983;28;19924;-84
2021/08/06 05:50:10;;;;;;;;;;;15.60;99.90;;;;;;5075210;28;19924;-84
2021/08/06 05:52:38;;;;;;;;;;;15.60;99.90;;;;;;5075221;28;19924;-84
2021/08/06 05:55:06;;;;;;;;;;;15.60;99.90;;;;;;5079049;28;20010;-84
2021/08/06 05:57:34;;;;;;;;;;;15.60;99.90;;;;;;5078761;28;19990;-84
2021/08/06 06:00:04;;;;;;;;;;;15.60;99.90;;;;;;5079044;28;19925;-84
2021/08/06 06:02:31;;;;;;;;;;;15.60;99.90;;;;;;5078762;28;19924;-84
2021/08/06 06:04:59;;;;;;;;;;;15.60;99.90;;;;;;5078901;28;19935;-84
2021/08/06 06:07:27;;;;;;;;;;;15.60;99.90;;;;;;5078509;28;19924;-84
2021/08/06 06:09:56;;;;;;;;;;;15.60;99.90;;;;;;5078878;28;19928;-84
2021/08/06 06:12:24;;;;;;;;;;;15.60;99.90;;;;;;5078520;28;19951;-84
2021/08/06 06:14:52;;;;;;;;;;;15.70;99.90;;;;;;5078877;28;19924;-84
2021/08/06 06:17:22;;;;;;;;;;;15.70;99.90;;;;;;5078456;28;19924;-84
2021/08/06 06:19:51;;;;;;;;;;;15.70;99.90;;;;;;5078367;28;19924;-84
2021/08/06 06:22:19;;;;;;;;;;;15.70;99.90;;;;;;5078478;28;19924;-84
2021/08/06 06:24:47;;;;;;;;;;;15.80;99.90;;;;;;5078387;28;19931;-84
2021/08/06 06:27:15;;;;;;;;;;;15.80;99.90;;;;;;5078507;28;20254;-84
2021/08/06 06:29:43;;;;;;;;;;;15.80;99.90;;;;;;5078094;28;19994;-84
2021/08/06 06:32:12;;;;;;;;;;;15.80;99.90;;;;;;5078325;28;19935;-84
2021/08/06 06:34:41;;;;;;;;;;;15.80;99.90;;;;;;5078465;28;19924;-84
2021/08/06 06:37:09;;;;;;;;;;;15.80;99.90;;;;;;5078197;28;19925;-84
2021/08/06 06:39:37;;;;;;;;;;;15.80;99.90;;;;;;5078243;28;19948;-84
2021/08/06 06:42:08;;;;;;;;;;;15.80;99.90;;;;;;5078296;28;19935;-84
2021/08/06 06:44:36;;;;;;;;;;;15.80;99.90;;;;;;5077948;28;19939;-84
2021/08/06 06:47:04;;;;;;;;;;;15.80;99.90;;;;;;5077978;28;19924;-84
2021/08/06 06:49:31;;;;;;;;;;;15.90;99.90;;;;;;5077725;28;19928;-84
2021/08/06 06:52:00;;;;;;;;;;;16.00;99.90;;;;;;5077792;28;19934;-84
2021/08/06 06:54:28;;;;;;;;;;;16.00;99.90;;;;;;5077803;28;19935;-84
2021/08/06 06:56:57;;;;;;;;;;;16.10;99.90;;;;;;5077795;28;20246;-85
2021/08/06 06:59:25;;;;;;;;;;;16.10;99.90;;;;;;5077783;28;19924;-84
2021/08/06 07:01:54;;;;;;;;;;;16.20;99.90;;;;;;5077819;28;19934;-84
2021/08/06 07:04:22;;;;;;;;;;;16.30;99.90;;;;;;5077555;28;19924;-84
2021/08/06 07:06:49;;;;;;;;;;;16.40;99.90;;;;;;5077393;28;19924;-84
2021/08/06 07:09:18;;;;;;;;;;;16.50;99.90;;;;;;5077861;28;19931;-84
2021/08/06 07:11:46;;;;;;;;;;;16.50;99.90;;;;;;5077498;28;19928;-84
2021/08/06 07:14:14;;;;;;;;;;;16.60;99.90;;;;;;5077427;28;19924;-84
2021/08/06 07:16:43;;;;;;;;;;;16.50;99.90;;;;;;5077461;28;19924;-84
2021/08/06 07:19:11;;;;;;;;;;;16.50;99.90;;;;;;5077123;28;19924;-84
2021/08/06 07:21:43;;;;;;;;;;;16.50;99.90;;;;;;5077505;28;19948;-84
2021/08/06 07:24:12;;;;;;;;;;;16.50;99.90;;;;;;5077294;28;19931;-84
2021/08/06 07:26:42;;;;;;;;;;;16.50;99.90;;;;;;5077131;28;19924;-85
2021/08/06 07:29:10;;;;;;;;;;;16.50;99.90;;;;;;5077065;28;20258;-85
2021/08/06 07:31:38;;;;;;;;;;;16.50;99.90;;;;;;5077454;28;20330;-85
2021/08/06 07:34:06;;;;;;;;;;;16.40;99.90;;;;;;5077289;28;19929;-85
2021/08/06 07:36:35;;;;;;;;;;;16.40;99.90;;;;;;5077018;28;19934;-84
2021/08/06 07:39:03;;;;;;;;;;;16.40;99.90;;;;;;5076951;28;20362;-85
2021/08/06 07:41:31;;;;;;;;;;;16.50;99.90;;;;;;5076918;28;19924;-85
2021/08/06 07:44:00;;;;;;;;;;;16.50;99.90;;;;;;5076818;28;20358;-85
2021/08/06 07:46:28;;;;;;;;;;;16.60;99.90;;;;;;5076838;28;20342;-86
2021/08/06 07:48:56;;;;;;;;;;;16.60;99.90;;;;;;5077004;28;19924;-86
2021/08/06 07:51:25;;;;;;;;;;;16.60;99.90;;;;;;5076927;28;19924;-86
2021/08/06 07:53:52;;;;;;;;;;;16.60;99.90;;;;;;5076759;28;19928;-86
2021/08/06 07:56:20;;;;;;;;;;;16.50;99.90;;;;;;5076943;28;19924;-86
2021/08/06 07:58:48;;;;;;;;;;;16.50;99.90;;;;;;5076662;28;19935;-86
2021/08/06 08:01:19;;;;;;;;;;;16.40;99.90;;;;;;5076928;28;19934;-86
2021/08/06 08:03:47;;;;;;;;;;;16.40;99.90;;;;;;5076440;28;19928;-87
2021/08/06 08:06:14;;;;;;;;;;;16.40;99.90;;;;;;5076736;28;19924;-86
2021/08/06 08:08:42;;;;;;;;;;;16.40;99.90;;;;;;5076246;28;20278;-86
2021/08/06 08:11:11;;;;;;;;;;;16.40;99.90;;;;;;5076407;28;19935;-87
2021/08/06 08:13:39;;;;;;;;;;;16.30;99.90;;;;;;5076858;28;20007;-86
2021/08/06 08:16:07;;;;;;;;;;;16.30;99.90;;;;;;5075737;28;20261;-86
2021/08/06 08:18:35;;;;;;;;;;;16.30;99.90;;;;;;5076607;28;19935;-87
2021/08/06 08:21:04;;;;;;;;;;;16.20;99.90;;;;;;5076362;28;20022;-86
2021/08/06 08:23:32;;;;;;;;;;;16.20;99.90;;;;;;5076188;28;20365;-87
2021/08/06 08:25:58;;;;;;;;;;;16.20;99.90;;;;;;5076155;28;19924;-87
2021/08/06 08:28:29;;;;;;;;;;;16.30;99.90;;;;;;5076237;28;19939;-86
2021/08/06 08:30:57;;;;;;;;;;;16.30;99.90;;;;;;5075892;28;19935;-86
2021/08/06 08:33:26;;;;;;;;;;;16.30;99.90;;;;;;5076326;28;19935;-86
2021/08/06 08:35:55;;;;;;;;;;;16.30;99.90;;;;;;5075792;28;19931;-86
2021/08/06 08:38:23;;;;;;;;;;;16.30;99.90;;;;;;5076215;28;20009;-86
2021/08/06 08:40:51;;;;;;;;;;;16.30;99.90;;;;;;5075799;28;20327;-86
2021/08/06 08:43:19;;;;;;;;;;;16.30;99.90;;;;;;5075861;28;19986;-86
2021/08/06 08:45:47;;;;;;;;;;;16.20;99.90;;;;;;5075672;28;20380;-86
2021/08/06 08:48:16;;;;;;;;;;;16.20;99.90;;;;;;5076038;28;19924;-86
2021/08/06 08:50:43;;;;;;;;;;;16.20;99.90;;;;;;5075480;28;19924;-87
2021/08/06 08:53:11;;;;;;;;;;;16.20;99.90;;;;;;5075204;28;19925;-87
2021/08/06 08:55:38;;;;;;;;;;;16.20;99.90;;;;;;5075723;28;19935;-87
2021/08/06 08:58:05;;;;;;;;;;;16.20;99.90;;;;;;5075421;28;20471;-87
2021/08/06 09:00:32;;;;;;;;;;;16.20;99.90;;;;;;5075634;28;19924;-88
2021/08/06 09:02:59;;;;;;;;;;;16.20;99.90;;;;;;5075472;28;19935;-88
2021/08/06 09:05:28;;;;;;;;;;;16.20;99.90;;;;;;5075340;28;19938;-88
2021/08/06 09:07:55;;;;;;;;;;;16.30;99.90;;;;;;5074771;28;20354;-87
2021/08/06 09:10:25;;;;;;;;;;;16.40;99.90;;;;;;5075267;28;19928;-87
2021/08/06 09:12:53;;;;;;;;;;;16.40;99.90;;;;;;5075431;28;19928;-88
2021/08/06 09:15:40;;;;;;;;;;;16.30;99.90;;;;;;5075229;28;19924;-88
2021/08/06 09:18:20;;;;;;;;;;;16.30;99.90;;;;;;5075142;28;20258;-87
2021/08/06 09:20:47;;;;;;;;;;;16.40;99.90;;;;;;5075048;28;19987;-87
2021/08/06 09:23:14;;;;;;;;;;;16.40;99.90;;;;;;5075316;28;20257;-88
2021/08/06 09:25:42;;;;;;;;;;;16.50;99.90;;;;;;5075018;28;20392;-87
2021/08/06 09:28:09;;;;;;;;;;;16.50;99.90;;;;;;5074336;28;19924;-88
2021/08/06 09:30:36;;;;;;;;;;;16.50;99.90;;;;;;5075225;28;19937;-87
2021/08/06 09:33:03;;;;;;;;;;;16.60;99.90;;;;;;5075057;28;19935;-88
2021/08/06 09:35:33;;;;;;;;;;;16.60;99.90;;;;;;5075002;28;19925;-87
2021/08/06 09:38:00;;;;;;;;;;;16.70;99.90;;;;;;5075079;28;19987;-87
2021/08/06 09:40:27;;;;;;;;;;;16.70;99.90;;;;;;5075266;28;20015;-86
2021/08/06 09:42:56;;;;;;;;;;;16.70;99.90;;;;;;5074987;28;19931;-87
2021/08/06 09:45:23;;;;;;;;;;;16.80;99.90;;;;;;5075133;28;20030;-87
2021/08/06 09:47:55;;;;;;;;;;;16.80;99.90;;;;;;5074845;28;19925;-88
2021/08/06 09:50:23;;;;;;;;;;;16.90;99.90;;;;;;5074948;28;20342;-87
2021/08/06 09:52:51;;;;;;;;;;;17.00;99.90;;;;;;5074989;28;19934;-86
2021/08/06 09:55:18;;;;;;;;;;;17.10;99.90;;;;;;5074754;28;19925;-86
2021/08/06 09:57:45;;;;;;;;;;;17.20;99.90;;;;;;5074866;28;19925;-86
2021/08/06 10:00:17;;;;;;;;;;;17.20;99.90;;;;;;5074937;28;19925;-85
2021/08/06 10:02:45;;;;;;;;;;;17.30;99.90;;;;;;5074836;28;19934;-86
2021/08/06 10:05:26;;;;;;;;;;;17.50;99.90;;;;;;5074535;28;19924;-87
2021/08/06 10:08:04;;;;;;;;;;;17.60;99.90;;;;;;5074571;28;19959;-86
2021/08/06 10:10:31;;;;;;;;;;;17.80;99.90;;;;;;5074640;28;20396;-86
2021/08/06 10:13:00;;;;;;;;;;;17.70;99.90;;;;;;5075066;28;19935;-86
2021/08/06 10:15:29;;;;;;;;;;;17.60;99.90;;;;;;5074875;28;20015;-85
2021/08/06 10:17:58;;;;;;;;;;;17.60;99.90;;;;;;5074742;28;19928;-86
2021/08/06 10:20:27;;;;;;;;;;;17.60;99.90;;;;;;5074812;28;19925;-86
2021/08/06 10:22:55;;;;;;;;;;;17.50;99.90;;;;;;5074568;28;19925;-86
2021/08/06 10:25:23;;;;;;;;;;;17.40;99.90;;;;;;5074785;28;19928;-86
2021/08/06 10:27:50;;;;;;;;;;;17.40;99.90;;;;;;5074586;28;20269;-86
2021/08/06 10:30:22;;;;;;;;;;;17.50;99.90;;;;;;5074656;28;19924;-86
2021/08/06 10:33:05;;;;;;;;;;;17.60;99.90;;;;;;5074567;28;19924;-85
2021/08/06 10:35:42;;;;;;;;;;;17.70;99.90;;;;;;5074803;28;19924;-86
2021/08/06 10:38:09;;;;;;;;;;;17.60;99.90;;;;;;5074681;28;20255;-86
2021/08/06 10:40:55;;;;;;;;;;;17.60;99.90;;;;;;5077725;28;19929;-86
2021/08/06 10:43:54;;;;;;;;;;;17.50;99.90;;;;;;5078389;28;19929;-86
2021/08/06 10:46:22;;;;;;;;;;;17.40;99.90;;;;;;5016596;28;20264;-86
2021/08/06 10:48:52;;;;;;;;;;;17.40;99.90;;;;;;5016654;28;19926;-79
2021/08/06 10:51:24;;;;;;;;;;;17.30;99.90;;;;;;5016431;28;19940;-78
2021/08/06 10:54:07;;;;;;;;;;;17.30;99.90;;;;;;5016918;28;19925;-82
2021/08/06 10:56:36;;;;;;;;;;;17.30;99.90;;;;;;5017340;28;19936;-77
2021/08/06 10:59:10;;;;;;;;;;;17.30;99.90;;;;;;5017049;28;19925;-80
2021/08/06 11:01:37;;;;;;;;;;;17.30;99.90;;;;;;5018277;28;19980;-78
2021/08/06 11:04:05;;;;;;;;;;;17.30;99.90;;;;;;5016184;28;19944;-82
2021/08/06 11:06:35;;;;;;;;;;;17.40;99.90;;;;;;5016294;28;19925;-77
2021/08/06 11:09:03;;;;;;;;;;;17.40;99.90;;;;;;5015889;28;19925;-77
2021/08/06 11:11:48;;;;;;;;;;;17.40;99.90;;;;;;5015961;28;19943;-77
2021/08/06 11:14:16;;;;;;;;;;;17.40;99.90;;;;;;5016239;28;19925;-77
2021/08/06 11:17:00;;;;;;;;;;;17.50;99.90;;;;;;5015971;28;19925;-76
2021/08/06 11:19:28;;;;;;;;;;;17.30;99.90;;;;;;5020971;28;19929;-78
2021/08/06 11:21:58;;;;;;;;;;;17.20;99.90;;;;;;5077176;28;19924;-79
2021/08/06 11:24:27;;;;;;;5.32;1.10;;;17.00;99.90;;;;;;5076892;28;20390;-78
2021/08/06 11:26:55;;;;;;;6.03;1.67;;;16.80;99.90;;;;;;5076597;28;20051;-77
2021/08/06 11:29:23;;;;;;;;;;;16.60;99.90;;;;;;5076908;28;20114;-82
2021/08/06 11:32:00;;;;;;;;;;;16.50;99.90;;;;;;5077082;28;19930;-83
2021/08/06 11:34:29;;;;;;;;;;;16.40;99.90;;;;;;5077208;28;20348;-83
2021/08/06 11:37:01;;;;;;;;;;;16.40;99.90;;;;;;5077190;28;19921;-83
2021/08/06 11:39:29;;;;;;;;;;;16.40;99.90;;;;;;5077060;28;19946;-82
2021/08/06 11:41:57;;;;;;;;;;;16.50;99.90;;;;;;5076858;28;19920;-82
2021/08/06 11:44:25;;;;;;;;;;;16.60;99.90;;;;;;5076787;28;19924;-82
2021/08/06 11:46:54;;;;;;;;;;;16.60;99.90;;;;;;5076711;28;20346;-83
2021/08/06 11:49:22;;;;;;;;;;;16.60;99.90;;;;;;5076544;28;19974;-83
2021/08/06 11:51:50;;;;;;;;;;;16.50;99.90;;;;;;5075836;28;19920;-83
2021/08/06 11:54:20;;;;;;;;;;;16.50;99.90;;;;;;5076617;28;19924;-82
2021/08/06 11:56:55;;;;;;;;;;;16.30;99.90;;;;;;5076497;28;19928;-83
2021/08/06 11:59:22;;;;;;;;;;;16.30;99.90;;;;;;5076762;28;19934;-83
2021/08/06 12:01:50;;;;;;;;;;;16.10;99.90;;;;;;5077056;28;19920;-84
2021/08/06 12:04:27;;;;;;;;;;;16.10;99.90;;;;;;5076596;28;19924;-85
2021/08/06 12:06:53;;;;;;;;;;;16.00;99.90;;;;;;5076343;28;19920;-85
2021/08/06 12:09:23;;;;;;;;;;;16.00;99.90;;;;;;5076240;28;19920;-85
2021/08/06 12:11:52;;;;;;;;;;;15.90;99.90;;;;;;5076081;28;19928;-84
2021/08/06 12:14:29;;;;;;;;;;;15.80;99.90;;;;;;5076492;28;19920;-82
2021/08/06 12:16:56;;;;;;;;;;;15.70;99.90;;;;;;5076276;28;19930;-84
2021/08/06 12:19:23;;;;;;;;;;;15.70;99.90;;;;;;5076238;28;19924;-83
2021/08/06 12:21:52;;;;;;;;;;;15.70;99.90;;;;;;5076150;28;19940;-82
2021/08/06 12:24:21;;;;;;;;;;;15.70;99.90;;;;;;5075963;28;19920;-83
2021/08/06 12:26:50;;;;;;;;;;;15.60;99.90;;;;;;5076202;28;19921;-83
2021/08/06 12:29:19;;;;;;;;;;;15.60;99.90;;;;;;5075998;28;19924;-84
2021/08/06 12:31:51;;;;;;;;;;;15.60;99.90;;;;;;5076018;28;19954;-87
2021/08/06 12:34:21;;;;;;;;;;;15.60;99.90;;;;;;5075830;28;19934;-87
2021/08/06 12:36:56;;;;;;;;;;;15.60;99.90;;;;;;5075690;28;19936;-87
2021/08/06 12:39:25;;;;;;;;;;;15.70;99.90;;;;;;5075741;28;19920;-86
2021/08/06 12:41:54;;;;;;;;;;;15.70;99.90;;;;;;5075906;28;19930;-87
2021/08/06 12:44:24;;;;;;;;;;;15.70;99.90;;;;;;5075703;28;19928;-86
2021/08/06 12:47:01;;;;;;;;;;;15.70;99.90;;;;;;5075795;28;20262;-85
2021/08/06 12:49:31;;;;;;;;;;;15.70;99.90;;;;;;5075648;28;19927;-85
2021/08/06 12:52:00;;;;;;;;;;;15.80;99.90;;;;;;5075710;28;19930;-85
2021/08/06 12:54:38;;;;;;;;;;;15.80;99.90;;;;;;5075408;28;19920;-85
2021/08/06 12:57:09;;;;;;;;;;;15.80;99.90;;;;;;5075416;28;19920;-85
2021/08/06 12:59:36;;;;;;;;;;;15.90;99.90;;;;;;5075516;28;19931;-85
2021/08/06 13:02:14;;;;;;;;;;;15.90;99.90;;;;;;5075348;28;19920;-85
2021/08/06 13:04:42;;;;;;;;;;;15.90;99.90;;;;;;5075222;28;20346;-85
2021/08/06 13:07:23;;;;;;;;;;;15.90;99.90;;;;;;5074969;28;19920;-85
2021/08/06 13:09:51;;;;;;;;;;;16.00;99.90;;;;;;5075285;28;19920;-85
2021/08/06 13:12:22;;;;;;;;;;;16.00;99.90;;;;;;5075187;28;20376;-85
2021/08/06 13:14:51;;;;;;;;;;;15.90;99.90;;;;;;5075431;28;20249;-84
2021/08/06 13:17:20;;;;;;;;;;;16.00;99.90;;;;;;5074998;28;19932;-85
2021/08/06 13:19:48;;;;;;;;;;;16.00;99.90;;;;;;5075128;28;19935;-86
2021/08/06 13:22:17;;;;;;;;;;;16.10;99.90;;;;;;5075190;28;19920;-85
2021/08/06 13:24:44;;;;;;;;;;;16.20;99.90;;;;;;5075021;28;20420;-84
2021/08/06 13:27:12;;;;;;;;;;;16.30;99.90;;;;;;5075045;28;19920;-85
2021/08/06 13:29:42;;;;;;;;;;;16.30;99.90;;;;;;5075312;28;19935;-85
2021/08/06 13:32:10;;;;;;;;;;;16.40;99.90;;;;;;5075155;28;19924;-87
2021/08/06 13:34:38;;;;;;;;;;;16.40;99.90;;;;;;5075239;28;20326;-85
2021/08/06 13:37:06;;;;;;;;;;;16.40;99.90;;;;;;5074386;28;19920;-85
2021/08/06 13:39:33;;;;;;;;;;;16.40;99.90;;;;;;5074423;28;19924;-85
2021/08/06 13:42:00;;;;;;;;;;;16.40;99.90;;;;;;5074576;28;19920;-85
2021/08/06 13:44:27;;;;;;;;;;;16.50;99.90;;;;;;5075191;28;19930;-84
2021/08/06 13:46:55;;;;;;;;;;;16.60;99.90;;;;;;5075346;28;19920;-85
2021/08/06 13:49:22;;;;;;;;;;;16.70;99.90;;;;;;5074972;28;20359;-85
2021/08/06 13:51:51;;;;;;;;;;;16.80;99.90;;;;;;5074730;28;19947;-85
2021/08/06 13:54:19;;;;;;;;;;;16.80;99.90;;;;;;5074808;28;19982;-85
2021/08/06 13:56:47;;;;;;;;;;;16.90;99.90;;;;;;5074714;28;19921;-85
2021/08/06 13:59:16;;;;;;;;;;;17.00;99.90;;;;;;5074869;28;19920;-85
2021/08/06 14:01:44;;;;;;;;;;;17.10;99.90;;;;;;5057345;28;20384;-85
2021/08/06 14:04:14;;;;;;;;;;;17.10;99.90;;;;;;5074788;28;19920;-86
2021/08/06 14:06:42;;;;;;;;;;;17.10;99.90;;;;;;5074599;28;19920;-85
2021/08/06 14:09:13;;;;;;;;;;;17.00;99.90;;;;;;5074610;28;19920;-85
2021/08/06 14:11:42;;;;;;;;;;;17.00;99.90;;;;;;5074950;28;19920;-85
2021/08/06 14:14:08;;;;;;;;;;;16.90;99.90;;;;;;5075508;28;19931;-86
2021/08/06 14:16:35;;;;;;;;;;;16.90;99.90;;;;;;5078599;28;20007;-86
2021/08/06 14:19:02;;;;;;;;;;;17.00;99.90;;;;;;5078390;28;19920;-86
2021/08/06 14:21:30;;;;;;;;;;;16.90;99.90;;;;;;5078592;28;19920;-86
2021/08/06 14:23:57;;;;;;;;;;;17.10;99.90;;;;;;5078617;28;20011;-86